sensor_id;sensor_type;location;lat;lon;timestamp;P1;durP1;ratioP1;P2;durP2;ratioP2
48963;SDS011;34776;48.180;16.420;2023-08-30T00:00:25;2.05;;;1.70;;
48963;SDS011;34776;48.180;16.420;2023-08-30T00:02:51;1.77;;;1.67;;
48963;SDS011;34776;48.180;16.420;2023-08-30T00:05:18;2.45;;;1.85;;
48963;SDS011;34776;48.180;16.420;2023-08-30T00:07:43;1.65;;;1.52;;
48963;SDS011;34776;48.180;16.420;2023-08-30T00:10:09;1.63;;;1.52;;
48963;SDS011;34776;48.180;16.420;2023-08-30T00:12:35;2.45;;;1.75;;
48963;SDS011;34776;48.180;16.420;2023-08-30T00:15:03;3.38;;;2.05;;
48963;SDS011;34776;48.180;16.420;2023-08-30T00:17:29;2.72;;;1.90;;
48963;SDS011;34776;48.180;16.420;2023-08-30T00:19:56;1.90;;;1.77;;
48963;SDS011;34776;48.180;16.420;2023-08-30T00:22:22;1.50;;;1.40;;
48963;SDS011;34776;48.180;16.420;2023-08-30T00:24:51;1.67;;;1.58;;
48963;SDS011;34776;48.180;16.420;2023-08-30T00:27:17;2.15;;;1.73;;
48963;SDS011;34776;48.180;16.420;2023-08-30T00:29:42;1.67;;;1.58;;
48963;SDS011;34776;48.180;16.420;2023-08-30T00:32:09;2.10;;;1.90;;
48963;SDS011;34776;48.180;16.420;2023-08-30T00:34:37;1.88;;;1.75;;
48963;SDS011;34776;48.180;16.420;2023-08-30T00:37:02;1.60;;;1.50;;
48963;SDS011;34776;48.180;16.420;2023-08-30T00:39:29;2.60;;;2.40;;
48963;SDS011;34776;48.180;16.420;2023-08-30T00:41:57;1.95;;;1.85;;
48963;SDS011;34776;48.180;16.420;2023-08-30T00:44:22;1.65;;;1.55;;
48963;SDS011;34776;48.180;16.420;2023-08-30T00:46:51;1.90;;;1.80;;
48963;SDS011;34776;48.180;16.420;2023-08-30T00:49:16;1.63;;;1.52;;
48963;SDS011;34776;48.180;16.420;2023-08-30T00:51:42;1.60;;;1.50;;
48963;SDS011;34776;48.180;16.420;2023-08-30T00:54:07;1.70;;;1.60;;
48963;SDS011;34776;48.180;16.420;2023-08-30T00:56:36;2.63;;;1.80;;
48963;SDS011;34776;48.180;16.420;2023-08-30T00:59:06;2.45;;;2.10;;
48963;SDS011;34776;48.180;16.420;2023-08-30T01:01:35;1.88;;;1.70;;
48963;SDS011;34776;48.180;16.420;2023-08-30T01:04:00;2.20;;;2.00;;
48963;SDS011;34776;48.180;16.420;2023-08-30T01:06:27;1.90;;;1.80;;
48963;SDS011;34776;48.180;16.420;2023-08-30T01:08:55;1.67;;;1.58;;
48963;SDS011;34776;48.180;16.420;2023-08-30T01:14:09;2.50;;;1.42;;
48963;SDS011;34776;48.180;16.420;2023-08-30T01:16:51;3.13;;;1.65;;
48963;SDS011;34776;48.180;16.420;2023-08-30T01:22:21;1.35;;;1.25;;
48963;SDS011;34776;48.180;16.420;2023-08-30T01:27:53;1.67;;;1.58;;
48963;SDS011;34776;48.180;16.420;2023-08-30T01:30:21;1.70;;;1.60;;
48963;SDS011;34776;48.180;16.420;2023-08-30T01:32:49;2.47;;;1.70;;
48963;SDS011;34776;48.180;16.420;2023-08-30T01:35:16;2.08;;;1.40;;
48963;SDS011;34776;48.180;16.420;2023-08-30T01:37:47;1.70;;;1.35;;
48963;SDS011;34776;48.180;16.420;2023-08-30T01:40:14;1.65;;;1.55;;
48963;SDS011;34776;48.180;16.420;2023-08-30T01:42:42;1.50;;;1.40;;
48963;SDS011;34776;48.180;16.420;2023-08-30T01:45:13;1.50;;;1.40;;
48963;SDS011;34776;48.180;16.420;2023-08-30T01:47:42;1.70;;;1.52;;
48963;SDS011;34776;48.180;16.420;2023-08-30T01:50:09;1.70;;;1.60;;
48963;SDS011;34776;48.180;16.420;2023-08-30T01:52:36;3.08;;;1.45;;
48963;SDS011;34776;48.180;16.420;2023-08-30T01:55:02;1.70;;;1.30;;
48963;SDS011;34776;48.180;16.420;2023-08-30T01:57:33;2.75;;;1.65;;
48963;SDS011;34776;48.180;16.420;2023-08-30T01:59:58;1.40;;;1.30;;
48963;SDS011;34776;48.180;16.420;2023-08-30T02:02:28;1.77;;;1.67;;
48963;SDS011;34776;48.180;16.420;2023-08-30T02:04:54;1.58;;;1.48;;
48963;SDS011;34776;48.180;16.420;2023-08-30T02:07:21;1.60;;;1.50;;
48963;SDS011;34776;48.180;16.420;2023-08-30T02:10:10;1.58;;;1.48;;
48963;SDS011;34776;48.180;16.420;2023-08-30T02:12:46;2.25;;;1.60;;
48963;SDS011;34776;48.180;16.420;2023-08-30T02:15:14;1.83;;;1.60;;
48963;SDS011;34776;48.180;16.420;2023-08-30T02:17:42;2.05;;;1.85;;
48963;SDS011;34776;48.180;16.420;2023-08-30T02:20:08;2.38;;;1.92;;
48963;SDS011;34776;48.180;16.420;2023-08-30T02:22:35;2.33;;;2.00;;
48963;SDS011;34776;48.180;16.420;2023-08-30T02:25:00;1.80;;;1.70;;
48963;SDS011;34776;48.180;16.420;2023-08-30T02:27:31;1.88;;;1.70;;
48963;SDS011;34776;48.180;16.420;2023-08-30T02:29:58;2.08;;;1.88;;
48963;SDS011;34776;48.180;16.420;2023-08-30T02:32:23;1.65;;;1.55;;
48963;SDS011;34776;48.180;16.420;2023-08-30T02:34:50;2.05;;;1.75;;
48963;SDS011;34776;48.180;16.420;2023-08-30T02:37:16;2.28;;;1.58;;
48963;SDS011;34776;48.180;16.420;2023-08-30T02:39:42;1.58;;;1.48;;
48963;SDS011;34776;48.180;16.420;2023-08-30T02:42:08;1.83;;;1.73;;
48963;SDS011;34776;48.180;16.420;2023-08-30T02:44:33;2.22;;;2.03;;
48963;SDS011;34776;48.180;16.420;2023-08-30T02:47:00;1.85;;;1.75;;
48963;SDS011;34776;48.180;16.420;2023-08-30T02:49:25;1.75;;;1.60;;
48963;SDS011;34776;48.180;16.420;2023-08-30T02:51:52;3.22;;;2.10;;
48963;SDS011;34776;48.180;16.420;2023-08-30T02:54:18;1.90;;;1.80;;
48963;SDS011;34776;48.180;16.420;2023-08-30T02:56:45;2.00;;;1.80;;
48963;SDS011;34776;48.180;16.420;2023-08-30T02:59:11;2.17;;;1.88;;
48963;SDS011;34776;48.180;16.420;2023-08-30T03:01:37;2.00;;;1.45;;
48963;SDS011;34776;48.180;16.420;2023-08-30T03:04:04;1.67;;;1.58;;
48963;SDS011;34776;48.180;16.420;2023-08-30T03:06:32;1.83;;;1.73;;
48963;SDS011;34776;48.180;16.420;2023-08-30T03:08:57;1.70;;;1.60;;
48963;SDS011;34776;48.180;16.420;2023-08-30T03:11:24;1.90;;;1.67;;
48963;SDS011;34776;48.180;16.420;2023-08-30T03:13:50;2.17;;;1.73;;
48963;SDS011;34776;48.180;16.420;2023-08-30T03:16:16;3.00;;;1.75;;
48963;SDS011;34776;48.180;16.420;2023-08-30T03:18:42;2.10;;;1.90;;
48963;SDS011;34776;48.180;16.420;2023-08-30T03:21:08;1.85;;;1.67;;
48963;SDS011;34776;48.180;16.420;2023-08-30T03:23:35;1.63;;;1.52;;
48963;SDS011;34776;48.180;16.420;2023-08-30T03:26:07;1.48;;;1.33;;
48963;SDS011;34776;48.180;16.420;2023-08-30T03:28:34;1.70;;;1.60;;
48963;SDS011;34776;48.180;16.420;2023-08-30T03:31:00;1.50;;;1.40;;
48963;SDS011;34776;48.180;16.420;2023-08-30T03:33:25;3.60;;;1.88;;
48963;SDS011;34776;48.180;16.420;2023-08-30T03:35:52;2.00;;;1.60;;
48963;SDS011;34776;48.180;16.420;2023-08-30T03:38:18;1.70;;;1.60;;
48963;SDS011;34776;48.180;16.420;2023-08-30T03:40:45;1.55;;;1.45;;
48963;SDS011;34776;48.180;16.420;2023-08-30T03:43:10;1.60;;;1.50;;
48963;SDS011;34776;48.180;16.420;2023-08-30T03:45:36;1.50;;;1.40;;
48963;SDS011;34776;48.180;16.420;2023-08-30T03:48:03;1.90;;;1.40;;
48963;SDS011;34776;48.180;16.420;2023-08-30T03:50:29;1.60;;;1.50;;
48963;SDS011;34776;48.180;16.420;2023-08-30T03:52:55;1.65;;;1.48;;
48963;SDS011;34776;48.180;16.420;2023-08-30T03:55:20;1.48;;;1.38;;
48963;SDS011;34776;48.180;16.420;2023-08-30T03:57:49;1.70;;;1.60;;
48963;SDS011;34776;48.180;16.420;2023-08-30T04:00:14;1.75;;;1.42;;
48963;SDS011;34776;48.180;16.420;2023-08-30T04:02:40;1.58;;;1.48;;
48963;SDS011;34776;48.180;16.420;2023-08-30T04:05:06;5.25;;;3.50;;
48963;SDS011;34776;48.180;16.420;2023-08-30T04:07:35;3.42;;;3.13;;
48963;SDS011;34776;48.180;16.420;2023-08-30T04:10:01;3.25;;;2.00;;
48963;SDS011;34776;48.180;16.420;2023-08-30T04:12:27;2.08;;;1.90;;
48963;SDS011;34776;48.180;16.420;2023-08-30T04:14:54;2.08;;;1.40;;
48963;SDS011;34776;48.180;16.420;2023-08-30T04:17:21;1.58;;;1.48;;
48963;SDS011;34776;48.180;16.420;2023-08-30T04:19:51;1.70;;;1.60;;
48963;SDS011;34776;48.180;16.420;2023-08-30T04:22:17;2.15;;;1.95;;
48963;SDS011;34776;48.180;16.420;2023-08-30T04:24:43;2.15;;;1.95;;
48963;SDS011;34776;48.180;16.420;2023-08-30T04:27:08;1.85;;;1.75;;
48963;SDS011;34776;48.180;16.420;2023-08-30T04:29:34;2.10;;;2.00;;
48963;SDS011;34776;48.180;16.420;2023-08-30T04:32:00;2.60;;;2.40;;
48963;SDS011;34776;48.180;16.420;2023-08-30T04:34:25;3.50;;;2.38;;
48963;SDS011;34776;48.180;16.420;2023-08-30T04:36:51;2.33;;;2.13;;
48963;SDS011;34776;48.180;16.420;2023-08-30T04:39:16;3.05;;;2.20;;
48963;SDS011;34776;48.180;16.420;2023-08-30T04:41:42;2.35;;;2.20;;
48963;SDS011;34776;48.180;16.420;2023-08-30T04:44:08;2.72;;;2.53;;
48963;SDS011;34776;48.180;16.420;2023-08-30T04:46:33;2.90;;;2.70;;
48963;SDS011;34776;48.180;16.420;2023-08-30T04:49:00;2.60;;;2.40;;
48963;SDS011;34776;48.180;16.420;2023-08-30T04:51:27;3.70;;;2.95;;
48963;SDS011;34776;48.180;16.420;2023-08-30T04:53:52;3.20;;;2.90;;
48963;SDS011;34776;48.180;16.420;2023-08-30T04:56:19;3.10;;;2.80;;
48963;SDS011;34776;48.180;16.420;2023-08-30T04:58:44;2.90;;;2.50;;
48963;SDS011;34776;48.180;16.420;2023-08-30T05:01:10;2.75;;;2.55;;
48963;SDS011;34776;48.180;16.420;2023-08-30T05:03:39;3.25;;;2.95;;
48963;SDS011;34776;48.180;16.420;2023-08-30T05:06:05;4.30;;;2.88;;
48963;SDS011;34776;48.180;16.420;2023-08-30T05:08:31;3.17;;;2.63;;
48963;SDS011;34776;48.180;16.420;2023-08-30T05:10:56;4.60;;;3.10;;
48963;SDS011;34776;48.180;16.420;2023-08-30T05:13:25;4.53;;;2.70;;
48963;SDS011;34776;48.180;16.420;2023-08-30T05:15:51;5.68;;;3.15;;
48963;SDS011;34776;48.180;16.420;2023-08-30T05:18:18;2.75;;;2.55;;
48963;SDS011;34776;48.180;16.420;2023-08-30T05:20:45;2.63;;;2.40;;
48963;SDS011;34776;48.180;16.420;2023-08-30T05:23:12;5.40;;;4.90;;
48963;SDS011;34776;48.180;16.420;2023-08-30T05:25:37;3.50;;;3.20;;
48963;SDS011;34776;48.180;16.420;2023-08-30T05:28:04;3.47;;;3.03;;
48963;SDS011;34776;48.180;16.420;2023-08-30T05:30:30;3.35;;;3.05;;
48963;SDS011;34776;48.180;16.420;2023-08-30T05:32:56;3.10;;;2.80;;
48963;SDS011;34776;48.180;16.420;2023-08-30T05:35:22;3.95;;;3.03;;
48963;SDS011;34776;48.180;16.420;2023-08-30T05:37:48;3.10;;;2.90;;
48963;SDS011;34776;48.180;16.420;2023-08-30T05:40:15;5.90;;;5.18;;
48963;SDS011;34776;48.180;16.420;2023-08-30T05:42:42;5.72;;;5.13;;
48963;SDS011;34776;48.180;16.420;2023-08-30T05:45:10;5.45;;;3.90;;
48963;SDS011;34776;48.180;16.420;2023-08-30T05:47:37;4.18;;;3.47;;
48963;SDS011;34776;48.180;16.420;2023-08-30T05:50:03;4.43;;;3.30;;
48963;SDS011;34776;48.180;16.420;2023-08-30T05:52:30;3.65;;;3.35;;
48963;SDS011;34776;48.180;16.420;2023-08-30T05:54:55;3.75;;;3.40;;
48963;SDS011;34776;48.180;16.420;2023-08-30T05:57:20;3.50;;;3.20;;
48963;SDS011;34776;48.180;16.420;2023-08-30T05:59:47;3.70;;;3.40;;
48963;SDS011;34776;48.180;16.420;2023-08-30T06:02:15;3.45;;;3.15;;
48963;SDS011;34776;48.180;16.420;2023-08-30T06:04:43;3.40;;;3.10;;
48963;SDS011;34776;48.180;16.420;2023-08-30T06:07:08;3.00;;;2.70;;
48963;SDS011;34776;48.180;16.420;2023-08-30T06:09:35;3.50;;;3.20;;
48963;SDS011;34776;48.180;16.420;2023-08-30T06:12:01;3.05;;;2.85;;
48963;SDS011;34776;48.180;16.420;2023-08-30T06:14:27;3.17;;;2.85;;
48963;SDS011;34776;48.180;16.420;2023-08-30T06:16:55;3.72;;;2.40;;
48963;SDS011;34776;48.180;16.420;2023-08-30T06:19:22;4.03;;;2.78;;
48963;SDS011;34776;48.180;16.420;2023-08-30T06:21:49;4.60;;;2.90;;
48963;SDS011;34776;48.180;16.420;2023-08-30T06:24:15;3.88;;;2.67;;
48963;SDS011;34776;48.180;16.420;2023-08-30T06:26:44;2.90;;;2.70;;
48963;SDS011;34776;48.180;16.420;2023-08-30T06:29:10;2.83;;;2.60;;
48963;SDS011;34776;48.180;16.420;2023-08-30T06:31:36;3.13;;;2.45;;
48963;SDS011;34776;48.180;16.420;2023-08-30T06:34:02;2.95;;;2.75;;
48963;SDS011;34776;48.180;16.420;2023-08-30T06:36:28;3.70;;;3.40;;
48963;SDS011;34776;48.180;16.420;2023-08-30T06:38:53;3.25;;;2.95;;
48963;SDS011;34776;48.180;16.420;2023-08-30T06:41:20;4.05;;;2.72;;
48963;SDS011;34776;48.180;16.420;2023-08-30T06:43:45;2.75;;;2.40;;
48963;SDS011;34776;48.180;16.420;2023-08-30T06:46:11;3.80;;;2.60;;
48963;SDS011;34776;48.180;16.420;2023-08-30T06:48:36;4.03;;;2.65;;
48963;SDS011;34776;48.180;16.420;2023-08-30T06:51:02;2.38;;;2.10;;
48963;SDS011;34776;48.180;16.420;2023-08-30T06:53:28;2.55;;;2.05;;
48963;SDS011;34776;48.180;16.420;2023-08-30T06:56:00;2.42;;;2.22;;
48963;SDS011;34776;48.180;16.420;2023-08-30T06:58:26;2.42;;;2.22;;
48963;SDS011;34776;48.180;16.420;2023-08-30T07:00:53;2.00;;;1.90;;
48963;SDS011;34776;48.180;16.420;2023-08-30T07:03:21;2.08;;;1.90;;
48963;SDS011;34776;48.180;16.420;2023-08-30T07:05:47;2.83;;;2.30;;
48963;SDS011;34776;48.180;16.420;2023-08-30T07:08:14;2.10;;;2.00;;
48963;SDS011;34776;48.180;16.420;2023-08-30T07:10:39;2.33;;;1.98;;
48963;SDS011;34776;48.180;16.420;2023-08-30T07:13:05;1.98;;;1.73;;
48963;SDS011;34776;48.180;16.420;2023-08-30T07:15:35;2.10;;;2.00;;
48963;SDS011;34776;48.180;16.420;2023-08-30T07:18:01;1.80;;;1.70;;
48963;SDS011;34776;48.180;16.420;2023-08-30T07:20:26;2.60;;;2.30;;
48963;SDS011;34776;48.180;16.420;2023-08-30T07:22:51;3.80;;;3.03;;
48963;SDS011;34776;48.180;16.420;2023-08-30T07:25:17;2.78;;;2.10;;
48963;SDS011;34776;48.180;16.420;2023-08-30T07:27:43;3.28;;;1.92;;
48963;SDS011;34776;48.180;16.420;2023-08-30T07:30:10;2.05;;;1.90;;
48963;SDS011;34776;48.180;16.420;2023-08-30T07:32:36;5.78;;;1.83;;
48963;SDS011;34776;48.180;16.420;2023-08-30T07:35:03;9.13;;;5.90;;
48963;SDS011;34776;48.180;16.420;2023-08-30T07:37:29;4.07;;;3.08;;
48963;SDS011;34776;48.180;16.420;2023-08-30T07:39:55;2.28;;;1.92;;
48963;SDS011;34776;48.180;16.420;2023-08-30T07:42:20;1.70;;;1.60;;
48963;SDS011;34776;48.180;16.420;2023-08-30T07:44:47;1.40;;;1.30;;
48963;SDS011;34776;48.180;16.420;2023-08-30T07:47:13;1.92;;;1.45;;
48963;SDS011;34776;48.180;16.420;2023-08-30T07:49:38;1.42;;;1.33;;
48963;SDS011;34776;48.180;16.420;2023-08-30T07:52:05;1.33;;;1.23;;
48963;SDS011;34776;48.180;16.420;2023-08-30T07:54:30;2.80;;;1.30;;
48963;SDS011;34776;48.180;16.420;2023-08-30T07:56:56;1.55;;;1.13;;
48963;SDS011;34776;48.180;16.420;2023-08-30T07:59:21;1.38;;;1.08;;
48963;SDS011;34776;48.180;16.420;2023-08-30T08:01:47;1.00;;;0.90;;
48963;SDS011;34776;48.180;16.420;2023-08-30T08:04:12;0.90;;;0.90;;
48963;SDS011;34776;48.180;16.420;2023-08-30T08:06:37;2.33;;;1.27;;
48963;SDS011;34776;48.180;16.420;2023-08-30T08:09:03;2.03;;;1.15;;
48963;SDS011;34776;48.180;16.420;2023-08-30T08:11:30;2.83;;;1.20;;
48963;SDS011;34776;48.180;16.420;2023-08-30T08:13:56;1.55;;;1.05;;
48963;SDS011;34776;48.180;16.420;2023-08-30T08:16:21;4.13;;;2.50;;
48963;SDS011;34776;48.180;16.420;2023-08-30T08:18:47;1.83;;;1.50;;
48963;SDS011;34776;48.180;16.420;2023-08-30T08:21:12;1.33;;;1.23;;
48963;SDS011;34776;48.180;16.420;2023-08-30T08:23:38;1.30;;;1.20;;
48963;SDS011;34776;48.180;16.420;2023-08-30T08:26:03;1.05;;;1.05;;
48963;SDS011;34776;48.180;16.420;2023-08-30T08:28:29;2.80;;;1.10;;
48963;SDS011;34776;48.180;16.420;2023-08-30T08:30:54;1.23;;;1.15;;
48963;SDS011;34776;48.180;16.420;2023-08-30T08:33:20;1.40;;;1.30;;
48963;SDS011;34776;48.180;16.420;2023-08-30T08:35:49;1.80;;;1.30;;
48963;SDS011;34776;48.180;16.420;2023-08-30T08:38:14;1.23;;;1.13;;
48963;SDS011;34776;48.180;16.420;2023-08-30T08:40:40;4.22;;;3.65;;
48963;SDS011;34776;48.180;16.420;2023-08-30T08:43:05;2.67;;;2.40;;
48963;SDS011;34776;48.180;16.420;2023-08-30T08:45:37;2.72;;;1.70;;
48963;SDS011;34776;48.180;16.420;2023-08-30T08:48:06;2.08;;;1.58;;
48963;SDS011;34776;48.180;16.420;2023-08-30T08:50:33;2.58;;;1.60;;
48963;SDS011;34776;48.180;16.420;2023-08-30T08:52:59;1.42;;;1.33;;
48963;SDS011;34776;48.180;16.420;2023-08-30T08:55:27;2.50;;;1.10;;
48963;SDS011;34776;48.180;16.420;2023-08-30T08:57:56;1.40;;;1.30;;
48963;SDS011;34776;48.180;16.420;2023-08-30T09:00:24;3.20;;;1.55;;
48963;SDS011;34776;48.180;16.420;2023-08-30T09:02:51;0.98;;;0.95;;
48963;SDS011;34776;48.180;16.420;2023-08-30T09:05:18;1.67;;;1.10;;
48963;SDS011;34776;48.180;16.420;2023-08-30T09:07:45;1.88;;;1.10;;
48963;SDS011;34776;48.180;16.420;2023-08-30T09:10:10;6.95;;;1.00;;
48963;SDS011;34776;48.180;16.420;2023-08-30T09:12:36;2.25;;;1.00;;
48963;SDS011;34776;48.180;16.420;2023-08-30T09:15:04;1.08;;;0.98;;
48963;SDS011;34776;48.180;16.420;2023-08-30T09:17:36;3.70;;;1.00;;
48963;SDS011;34776;48.180;16.420;2023-08-30T09:20:08;0.93;;;0.90;;
48963;SDS011;34776;48.180;16.420;2023-08-30T09:22:35;1.58;;;0.90;;
48963;SDS011;34776;48.180;16.420;2023-08-30T09:25:05;2.53;;;0.80;;
48963;SDS011;34776;48.180;16.420;2023-08-30T09:27:35;2.55;;;0.95;;
48963;SDS011;34776;48.180;16.420;2023-08-30T09:30:03;2.10;;;1.42;;
48963;SDS011;34776;48.180;16.420;2023-08-30T09:32:41;2.20;;;2.00;;
48963;SDS011;34776;48.180;16.420;2023-08-30T09:35:08;1.17;;;1.02;;
48963;SDS011;34776;48.180;16.420;2023-08-30T09:37:35;1.15;;;0.60;;
48963;SDS011;34776;48.180;16.420;2023-08-30T09:40:00;1.27;;;0.90;;
48963;SDS011;34776;48.180;16.420;2023-08-30T09:42:26;0.60;;;0.60;;
48963;SDS011;34776;48.180;16.420;2023-08-30T09:44:51;0.77;;;0.77;;
48963;SDS011;34776;48.180;16.420;2023-08-30T09:47:17;0.90;;;0.80;;
48963;SDS011;34776;48.180;16.420;2023-08-30T09:49:43;1.75;;;1.08;;
48963;SDS011;34776;48.180;16.420;2023-08-30T09:52:14;0.70;;;0.70;;
48963;SDS011;34776;48.180;16.420;2023-08-30T09:54:42;3.92;;;2.00;;
48963;SDS011;34776;48.180;16.420;2023-08-30T09:57:09;3.05;;;2.00;;
48963;SDS011;34776;48.180;16.420;2023-08-30T09:59:35;3.08;;;0.90;;
48963;SDS011;34776;48.180;16.420;2023-08-30T10:02:02;3.10;;;0.90;;
48963;SDS011;34776;48.180;16.420;2023-08-30T10:04:29;1.75;;;0.70;;
48963;SDS011;34776;48.180;16.420;2023-08-30T10:06:58;0.88;;;0.88;;
48963;SDS011;34776;48.180;16.420;2023-08-30T10:09:27;2.33;;;0.90;;
48963;SDS011;34776;48.180;16.420;2023-08-30T10:11:55;1.08;;;0.98;;
48963;SDS011;34776;48.180;16.420;2023-08-30T10:14:23;1.30;;;1.08;;
48963;SDS011;34776;48.180;16.420;2023-08-30T10:16:49;1.00;;;0.85;;
48963;SDS011;34776;48.180;16.420;2023-08-30T10:19:17;1.90;;;1.38;;
48963;SDS011;34776;48.180;16.420;2023-08-30T10:22:02;2.03;;;1.90;;
48963;SDS011;34776;48.180;16.420;2023-08-30T10:27:34;1.40;;;1.30;;
48963;SDS011;34776;48.180;16.420;2023-08-30T10:30:02;2.30;;;0.90;;
48963;SDS011;34776;48.180;16.420;2023-08-30T10:32:30;2.03;;;1.50;;
48963;SDS011;34776;48.180;16.420;2023-08-30T10:35:00;1.65;;;1.55;;
48963;SDS011;34776;48.180;16.420;2023-08-30T10:37:28;3.90;;;1.10;;
48963;SDS011;34776;48.180;16.420;2023-08-30T10:39:59;0.70;;;0.70;;
48963;SDS011;34776;48.180;16.420;2023-08-30T10:42:28;1.67;;;1.48;;
48963;SDS011;34776;48.180;16.420;2023-08-30T10:50:05;6.38;;;1.20;;
48963;SDS011;34776;48.180;16.420;2023-08-30T10:52:32;3.67;;;1.00;;
48963;SDS011;34776;48.180;16.420;2023-08-30T10:55:04;2.22;;;1.08;;
48963;SDS011;34776;48.180;16.420;2023-08-30T10:57:30;2.40;;;1.15;;
48963;SDS011;34776;48.180;16.420;2023-08-30T11:02:56;1.55;;;1.20;;
48963;SDS011;34776;48.180;16.420;2023-08-30T11:05:23;1.52;;;0.93;;
48963;SDS011;34776;48.180;16.420;2023-08-30T11:07:49;2.15;;;2.03;;
48963;SDS011;34776;48.180;16.420;2023-08-30T11:10:16;1.70;;;1.60;;
48963;SDS011;34776;48.180;16.420;2023-08-30T11:12:42;3.60;;;1.80;;
48963;SDS011;34776;48.180;16.420;2023-08-30T11:15:11;2.13;;;1.33;;
48963;SDS011;34776;48.180;16.420;2023-08-30T11:17:44;3.47;;;1.60;;
48963;SDS011;34776;48.180;16.420;2023-08-30T11:20:10;3.65;;;2.40;;
48963;SDS011;34776;48.180;16.420;2023-08-30T11:22:42;2.17;;;1.60;;
48963;SDS011;34776;48.180;16.420;2023-08-30T11:25:09;1.58;;;1.48;;
48963;SDS011;34776;48.180;16.420;2023-08-30T11:27:37;2.03;;;1.60;;
48963;SDS011;34776;48.180;16.420;2023-08-30T11:30:03;2.22;;;2.00;;
48963;SDS011;34776;48.180;16.420;2023-08-30T11:32:34;1.65;;;1.55;;
48963;SDS011;34776;48.180;16.420;2023-08-30T11:35:01;1.70;;;1.27;;
48963;SDS011;34776;48.180;16.420;2023-08-30T11:37:27;2.90;;;1.40;;
48963;SDS011;34776;48.180;16.420;2023-08-30T11:39:54;1.35;;;1.25;;
48963;SDS011;34776;48.180;16.420;2023-08-30T11:42:20;1.38;;;1.27;;
48963;SDS011;34776;48.180;16.420;2023-08-30T11:44:46;3.95;;;1.25;;
48963;SDS011;34776;48.180;16.420;2023-08-30T11:47:17;1.60;;;1.38;;
48963;SDS011;34776;48.180;16.420;2023-08-30T11:49:50;2.28;;;1.50;;
48963;SDS011;34776;48.180;16.420;2023-08-30T11:52:18;4.07;;;1.13;;
48963;SDS011;34776;48.180;16.420;2023-08-30T11:54:46;3.15;;;1.90;;
48963;SDS011;34776;48.180;16.420;2023-08-30T11:57:13;1.70;;;1.42;;
48963;SDS011;34776;48.180;16.420;2023-08-30T11:59:39;1.92;;;1.67;;
48963;SDS011;34776;48.180;16.420;2023-08-30T12:02:04;1.38;;;1.27;;
48963;SDS011;34776;48.180;16.420;2023-08-30T12:04:32;1.63;;;1.40;;
48963;SDS011;34776;48.180;16.420;2023-08-30T12:06:58;1.65;;;1.55;;
48963;SDS011;34776;48.180;16.420;2023-08-30T12:09:29;1.45;;;1.30;;
48963;SDS011;34776;48.180;16.420;2023-08-30T12:12:04;2.33;;;1.40;;
48963;SDS011;34776;48.180;16.420;2023-08-30T12:14:39;3.38;;;1.40;;
48963;SDS011;34776;48.180;16.420;2023-08-30T12:17:05;2.00;;;1.38;;
48963;SDS011;34776;48.180;16.420;2023-08-30T12:19:33;1.55;;;1.42;;
48963;SDS011;34776;48.180;16.420;2023-08-30T12:22:04;1.40;;;1.30;;
48963;SDS011;34776;48.180;16.420;2023-08-30T12:24:43;1.38;;;1.20;;
48963;SDS011;34776;48.180;16.420;2023-08-30T12:27:13;3.33;;;2.47;;
48963;SDS011;34776;48.180;16.420;2023-08-30T12:29:39;1.85;;;1.63;;
48963;SDS011;34776;48.180;16.420;2023-08-30T12:32:05;2.05;;;1.30;;
48963;SDS011;34776;48.180;16.420;2023-08-30T12:34:32;1.95;;;1.23;;
48963;SDS011;34776;48.180;16.420;2023-08-30T12:36:59;1.63;;;1.20;;
48963;SDS011;34776;48.180;16.420;2023-08-30T12:39:24;1.25;;;1.00;;
48963;SDS011;34776;48.180;16.420;2023-08-30T12:41:50;2.15;;;1.55;;
48963;SDS011;34776;48.180;16.420;2023-08-30T12:44:15;1.30;;;1.20;;
48963;SDS011;34776;48.180;16.420;2023-08-30T12:46:42;1.63;;;1.52;;
48963;SDS011;34776;48.180;16.420;2023-08-30T12:49:10;2.97;;;1.52;;
48963;SDS011;34776;48.180;16.420;2023-08-30T12:51:36;2.17;;;1.35;;
48963;SDS011;34776;48.180;16.420;2023-08-30T12:54:01;2.75;;;1.40;;
48963;SDS011;34776;48.180;16.420;2023-08-30T12:56:27;2.67;;;2.47;;
48963;SDS011;34776;48.180;16.420;2023-08-30T12:58:53;1.55;;;1.30;;
48963;SDS011;34776;48.180;16.420;2023-08-30T13:01:19;2.03;;;1.80;;
48963;SDS011;34776;48.180;16.420;2023-08-30T13:03:45;2.28;;;1.52;;
48963;SDS011;34776;48.180;16.420;2023-08-30T13:06:11;1.10;;;1.10;;
48963;SDS011;34776;48.180;16.420;2023-08-30T13:08:36;2.17;;;1.55;;
48963;SDS011;34776;48.180;16.420;2023-08-30T13:11:02;2.40;;;2.05;;
48963;SDS011;34776;48.180;16.420;2023-08-30T13:13:28;2.53;;;1.90;;
48963;SDS011;34776;48.180;16.420;2023-08-30T13:15:53;2.10;;;1.90;;
48963;SDS011;34776;48.180;16.420;2023-08-30T13:18:19;1.45;;;1.20;;
48963;SDS011;34776;48.180;16.420;2023-08-30T13:20:46;1.40;;;1.00;;
48963;SDS011;34776;48.180;16.420;2023-08-30T13:23:13;1.20;;;1.10;;
48963;SDS011;34776;48.180;16.420;2023-08-30T13:25:40;3.90;;;3.50;;
48963;SDS011;34776;48.180;16.420;2023-08-30T13:28:11;2.75;;;1.20;;
48963;SDS011;34776;48.180;16.420;2023-08-30T13:30:36;1.40;;;1.20;;
48963;SDS011;34776;48.180;16.420;2023-08-30T13:33:13;1.25;;;1.15;;
48963;SDS011;34776;48.180;16.420;2023-08-30T13:35:40;1.20;;;1.10;;
48963;SDS011;34776;48.180;16.420;2023-08-30T13:38:05;4.03;;;1.08;;
48963;SDS011;34776;48.180;16.420;2023-08-30T13:40:32;1.95;;;1.23;;
48963;SDS011;34776;48.180;16.420;2023-08-30T13:42:57;1.67;;;1.05;;
48963;SDS011;34776;48.180;16.420;2023-08-30T13:45:24;0.98;;;0.98;;
48963;SDS011;34776;48.180;16.420;2023-08-30T13:47:55;0.85;;;0.85;;
48963;SDS011;34776;48.180;16.420;2023-08-30T13:50:21;1.15;;;1.00;;
48963;SDS011;34776;48.180;16.420;2023-08-30T13:52:54;1.67;;;0.90;;
48963;SDS011;34776;48.180;16.420;2023-08-30T13:55:21;2.45;;;0.90;;
48963;SDS011;34776;48.180;16.420;2023-08-30T13:57:46;9.02;;;1.20;;
48963;SDS011;34776;48.180;16.420;2023-08-30T14:00:12;1.25;;;1.10;;
48963;SDS011;34776;48.180;16.420;2023-08-30T14:02:38;1.70;;;1.33;;
48963;SDS011;34776;48.180;16.420;2023-08-30T14:05:07;2.15;;;1.20;;
48963;SDS011;34776;48.180;16.420;2023-08-30T14:07:36;2.03;;;1.35;;
48963;SDS011;34776;48.180;16.420;2023-08-30T14:10:02;2.70;;;1.05;;
48963;SDS011;34776;48.180;16.420;2023-08-30T14:12:29;0.85;;;0.85;;
48963;SDS011;34776;48.180;16.420;2023-08-30T14:14:55;0.90;;;0.90;;
48963;SDS011;34776;48.180;16.420;2023-08-30T14:17:21;5.50;;;1.85;;
48963;SDS011;34776;48.180;16.420;2023-08-30T14:19:47;1.10;;;0.90;;
48963;SDS011;34776;48.180;16.420;2023-08-30T14:22:13;1.00;;;0.77;;
48963;SDS011;34776;48.180;16.420;2023-08-30T14:24:38;1.30;;;1.20;;
48963;SDS011;34776;48.180;16.420;2023-08-30T14:27:06;1.73;;;1.50;;
48963;SDS011;34776;48.180;16.420;2023-08-30T14:29:32;1.65;;;1.17;;
48963;SDS011;34776;48.180;16.420;2023-08-30T14:31:58;1.38;;;1.27;;
48963;SDS011;34776;48.180;16.420;2023-08-30T14:34:29;3.33;;;2.30;;
48963;SDS011;34776;48.180;16.420;2023-08-30T14:37:09;4.50;;;1.65;;
48963;SDS011;34776;48.180;16.420;2023-08-30T14:39:35;2.90;;;1.35;;
48963;SDS011;34776;48.180;16.420;2023-08-30T14:42:03;2.33;;;2.00;;
48963;SDS011;34776;48.180;16.420;2023-08-30T14:44:33;1.17;;;1.17;;
48963;SDS011;34776;48.180;16.420;2023-08-30T14:46:58;3.50;;;1.02;;
48963;SDS011;34776;48.180;16.420;2023-08-30T14:49:23;2.03;;;1.58;;
48963;SDS011;34776;48.180;16.420;2023-08-30T14:51:50;1.45;;;1.15;;